createdAt,value
2019-02-28T03:08:03.583Z,19.2
2019-02-28T03:08:45.561Z,19.2
2019-02-28T03:09:35.266Z,19.3
2019-02-28T03:10:25.777Z,19.3
2019-02-28T03:11:15.318Z,19.3
2019-02-28T03:12:05.691Z,19.2
2019-02-28T03:12:54.846Z,19.3
2019-02-28T03:13:50.548Z,19.2
2019-02-28T03:14:34.778Z,19.2
2019-02-28T03:15:33.111Z,19.3
2019-02-28T03:16:16.116Z,19.2
2019-02-28T03:17:14.809Z,19.2
2019-02-28T03:17:55.819Z,19.2
2019-02-28T03:18:45.874Z,19.2
2019-02-28T03:19:40.831Z,19.2
2019-02-28T03:20:25.689Z,19.3
2019-02-28T03:21:21.427Z,19.2
2019-02-28T03:22:05.936Z,19.2
2019-02-28T03:22:56.099Z,19.2
2019-02-28T03:23:46.301Z,19.2
2019-02-28T03:24:36.038Z,19.2
2019-02-28T03:25:34.104Z,19.2
2019-02-28T03:26:16.723Z,19.2
2019-02-28T03:27:06.590Z,19.2
2019-02-28T03:28:02.764Z,19.2
2019-02-28T03:28:46.505Z,19.2
2019-02-28T03:29:40.093Z,19.2
2019-02-28T03:30:39.964Z,19.2
2019-02-28T03:31:21.893Z,19.2
2019-02-28T03:32:06.664Z,19.2
2019-02-28T03:32:57.033Z,19.2
2019-02-28T03:33:47.776Z,19.2
2019-02-28T03:34:37.828Z,19.2
2019-02-28T03:35:45.181Z,19.2
2019-02-28T03:36:22.917Z,19.2
2019-02-28T03:37:07.162Z,19.2
2019-02-28T03:37:57.501Z,19.2
2019-02-28T03:38:56.127Z,19.2
2019-02-28T03:39:36.788Z,19.2
2019-02-28T03:40:27.310Z,19.2
2019-02-28T03:41:24.080Z,19.2
2019-02-28T03:42:07.479Z,19.2
2019-02-28T03:43:06.984Z,19.2
2019-02-28T03:43:50.352Z,19.2
2019-02-28T03:44:38.133Z,19.2
2019-02-28T03:45:37.435Z,19.2
2019-02-28T03:46:17.997Z,19.2
2019-02-28T03:47:07.521Z,19.2
2019-02-28T03:48:05.757Z,19.2
2019-02-28T03:48:47.611Z,19.2
2019-02-28T03:49:37.980Z,19.2
2019-02-28T03:50:29.280Z,19.2
2019-02-28T03:51:18.687Z,19.2
2019-02-28T03:52:13.310Z,19.2
2019-02-28T03:52:58.460Z,19.2
2019-02-28T03:53:55.522Z,19.2
2019-02-28T03:54:38.057Z,19.1
2019-02-28T03:55:28.308Z,19.2
2019-02-28T03:56:21.346Z,19.2
2019-02-28T03:57:08.771Z,19.2
2019-02-28T03:58:07.072Z,19.2
2019-02-28T03:58:48.852Z,19.2
2019-02-28T03:59:38.941Z,19.2
2019-02-28T04:00:37.901Z,19.2
2019-02-28T04:01:19.227Z,19.2
2019-02-28T04:02:08.747Z,19.2
2019-02-28T04:03:05.014Z,19.1
2019-02-28T04:03:48.949Z,19.2
2019-02-28T04:04:39.302Z,19.2
2019-02-28T04:05:34.221Z,19.1
2019-02-28T04:06:19.175Z,19.2
2019-02-28T04:07:15.947Z,19.1
2019-02-28T04:08:00.956Z,19.1
2019-02-28T04:08:49.599Z,19.1
2019-02-28T04:09:46.791Z,19.2
2019-02-28T04:10:29.480Z,19.1
2019-02-28T04:11:19.502Z,19.1
2019-02-28T04:12:14.908Z,19.1
2019-02-28T04:12:59.618Z,19.1
2019-02-28T04:13:57.666Z,19.1
2019-02-28T04:14:39.836Z,19.1
2019-02-28T04:15:29.786Z,19.1
2019-02-28T04:16:19.243Z,19.1
2019-02-28T04:17:10.166Z,19.1
2019-02-28T04:17:59.227Z,19.1
2019-02-28T04:18:52.963Z,19.1
2019-02-28T04:19:39.732Z,19.1
2019-02-28T04:20:39.410Z,19.1
2019-02-28T04:21:20.421Z,19.1
2019-02-28T04:22:09.674Z,19.1
2019-02-28T04:23:06.675Z,19.1
2019-02-28T04:23:50.619Z,19.1
2019-02-28T04:24:39.519Z,19.2
2019-02-28T04:25:30.678Z,19.1
2019-02-28T04:26:20.742Z,19.1
2019-02-28T04:27:14.279Z,19.1
2019-02-28T04:28:00.706Z,19.1
2019-02-28T04:28:58.843Z,19.1
2019-02-28T04:29:40.705Z,19.1
2019-02-28T04:30:31.405Z,19.1
2019-02-28T04:31:26.141Z,19.1
2019-02-28T04:32:10.610Z,19.1
2019-02-28T04:33:07.355Z,19.1
2019-02-28T04:33:51.229Z,19.1
2019-02-28T04:34:41.080Z,19.1
2019-02-28T04:35:32.049Z,19.1
2019-02-28T04:36:21.544Z,19.1
2019-02-28T04:37:15.936Z,19.1
2019-02-28T04:38:01.851Z,19.1
2019-02-28T04:38:54.466Z,19.1
2019-02-28T04:39:41.083Z,19.1
2019-02-28T04:40:33.684Z,19.1
2019-02-28T04:41:21.759Z,19.1
2019-02-28T04:42:12.593Z,19.1
2019-02-28T04:43:01.838Z,19.1
2019-02-28T04:43:50.859Z,19.1
2019-02-28T04:44:41.956Z,19.1
2019-02-28T04:45:32.286Z,19.1
2019-02-28T04:46:21.763Z,19.1
2019-02-28T04:47:12.602Z,19.1
2019-02-28T04:48:00.848Z,19.1
2019-02-28T04:48:53.843Z,19.1
2019-02-28T04:49:41.548Z,19.1
2019-02-28T04:50:38.006Z,19.1
2019-02-28T04:51:21.081Z,19.1
2019-02-28T04:52:15.803Z,19.1
2019-02-28T04:53:02.560Z,19.1
2019-02-28T04:53:56.508Z,19.1
2019-02-28T04:54:41.790Z,19.1
2019-02-28T04:55:40.293Z,19.1
2019-02-28T04:56:22.160Z,19.1
2019-02-28T04:57:13.063Z,19.1
2019-02-28T04:58:02.873Z,19.1
2019-02-28T04:58:52.643Z,19.1
2019-02-28T04:59:43.250Z,19.1
2019-02-28T05:00:33.025Z,19.1
2019-02-28T05:01:23.355Z,19.1
2019-02-28T05:02:12.833Z,19.1
2019-02-28T05:03:03.462Z,19.1
2019-02-28T05:03:54.873Z,19.1
2019-02-28T05:04:42.790Z,19.1
2019-02-28T05:05:32.835Z,19.1
2019-02-28T05:06:27.595Z,19.1
2019-02-28T05:07:13.195Z,19.1
2019-02-28T05:08:09.807Z,19.1
2019-02-28T05:08:53.470Z,19.1
2019-02-28T05:09:48.789Z,19.1
2019-02-28T05:10:33.427Z,19.1
2019-02-28T05:11:23.562Z,19.1
2019-02-28T05:12:13.264Z,19.1
2019-02-28T05:13:03.620Z,19.1
2019-02-28T05:13:55.805Z,19.1
2019-02-28T05:14:42.993Z,19.1
2019-02-28T05:15:42.481Z,19.1
2019-02-28T05:16:23.879Z,19.1
2019-02-28T05:17:13.087Z,19.1
2019-02-28T05:18:02.826Z,19.1
2019-02-28T05:18:54.317Z,19.1
2019-02-28T05:19:44.601Z,19.1
2019-02-28T05:20:36.452Z,19.1
2019-02-28T05:21:26.029Z,19.1
2019-02-28T05:22:14.214Z,19.1
2019-02-28T05:23:08.686Z,19.1
2019-02-28T05:23:54.354Z,19.1
2019-02-28T05:24:48.656Z,19.1
2019-02-28T05:25:34.724Z,19.1
2019-02-28T05:26:30.354Z,19.1
2019-02-28T05:27:13.716Z,19.1
2019-02-28T05:28:07.858Z,19.1
2019-02-28T05:28:54.142Z,19.1
2019-02-28T05:29:49.084Z,19.1
2019-02-28T05:30:34.364Z,19.1
2019-02-28T05:31:30.695Z,19.1
2019-02-28T05:32:14.904Z,19.1
2019-02-28T05:33:08.697Z,19.1
2019-02-28T05:33:55.027Z,19.1
2019-02-28T05:34:52.373Z,19.1
2019-02-28T05:35:34.899Z,19.1
2019-02-28T05:36:25.226Z,19.1
2019-02-28T05:37:19.228Z,19.1
2019-02-28T05:38:05.627Z,19.1
2019-02-28T05:39:01.921Z,19.1
2019-02-28T05:39:47.526Z,19.1
2019-02-28T05:40:42.048Z,19.1
2019-02-28T05:41:26.151Z,19.1
2019-02-28T05:42:15.088Z,19.1
2019-02-28T05:43:06.008Z,19.1
2019-02-28T05:43:55.156Z,19.1
2019-02-28T05:44:47.185Z,19.1
2019-02-28T05:45:36.351Z,19.1
2019-02-28T05:46:30.870Z,19.1
2019-02-28T05:47:15.700Z,19.1
2019-02-28T05:48:09.854Z,19.1
2019-02-28T05:48:55.835Z,19.1
2019-02-28T05:49:47.153Z,19.1
2019-02-28T05:50:35.881Z,19.1
2019-02-28T05:51:30.385Z,19.1
2019-02-28T05:52:16.305Z,19.1
2019-02-28T05:53:14.328Z,19.1
2019-02-28T05:53:57.005Z,19.1
2019-02-28T05:54:52.760Z,19.1
2019-02-28T05:55:37.730Z,19.1
2019-02-28T05:56:25.978Z,19.1
2019-02-28T05:57:16.867Z,19.1
2019-02-28T05:58:05.382Z,19.1
2019-02-28T05:58:58.327Z,19.1
2019-02-28T05:59:46.790Z,19.1
2019-02-28T06:00:43.775Z,19.1
2019-02-28T06:01:26.400Z,19.1
2019-02-28T06:02:26.193Z,19.1
2019-02-28T06:03:09.075Z,19.1
2019-02-28T06:03:57.322Z,19.1
2019-02-28T06:05:54.675Z,19.1
2019-02-28T06:06:44.182Z,19.1
2019-02-28T06:07:36.062Z,19.1
2019-02-28T06:08:24.879Z,19.1
2019-02-28T06:09:20.014Z,19.1
2019-02-28T06:10:05.406Z,19.1
2019-02-28T06:11:03.794Z,19.1
2019-02-28T06:11:46.134Z,19.1
2019-02-28T06:12:35.374Z,19.1
2019-02-28T06:13:25.705Z,19.1
2019-02-28T06:14:15.785Z,19.1
2019-02-28T06:15:09.623Z,19.1
2019-02-28T06:15:55.656Z,19.1
2019-02-28T06:16:52.612Z,19.1
2019-02-28T06:17:35.867Z,19.1
2019-02-28T06:18:35.873Z,19.1
2019-02-28T06:19:15.830Z,19.1
2019-02-28T06:20:06.425Z,19.1
2019-02-28T06:20:58.632Z,19.1
2019-02-28T06:21:45.972Z,19.1
2019-02-28T06:22:41.735Z,19.1
2019-02-28T06:23:26.142Z,19.1
2019-02-28T06:24:19.658Z,19.1
2019-02-28T06:25:06.965Z,19.1
2019-02-28T06:26:04.471Z,19.1
2019-02-28T06:26:46.883Z,19.1
2019-02-28T06:27:54.841Z,19.1
2019-02-28T06:28:33.652Z,19.1
2019-02-28T06:29:17.102Z,19.1
2019-02-28T06:30:10.502Z,19.1
2019-02-28T06:30:56.614Z,19.1
2019-02-28T06:31:52.782Z,19.1
2019-02-28T06:32:36.497Z,19.1
2019-02-28T06:33:27.343Z,19.1
2019-02-28T06:34:16.879Z,19.1
2019-02-28T06:35:07.252Z,19.1
2019-02-28T06:36:00.242Z,19.1
2019-02-28T06:36:47.627Z,19.1
2019-02-28T06:37:43.339Z,19.1
2019-02-28T06:38:27.431Z,19.1
2019-02-28T06:39:19.201Z,19.1
2019-02-28T06:40:06.709Z,19.1
2019-02-28T06:40:57.011Z,19.1
2019-02-28T06:41:47.387Z,19.1
2019-02-28T06:42:37.179Z,19.1
2019-02-28T06:43:27.456Z,19.1
2019-02-28T06:44:17.814Z,19.1
2019-02-28T06:45:08.521Z,19.1
2019-02-28T06:45:57.349Z,19.1
2019-02-28T06:46:46.856Z,19.1
2019-02-28T06:47:39.541Z,19.1
2019-02-28T06:48:32.401Z,19.1
2019-02-28T06:49:18.458Z,19.1
2019-02-28T06:50:08.288Z,19.1
2019-02-28T06:50:57.461Z,19.2
2019-02-28T06:51:53.898Z,19.1
2019-02-28T06:52:38.193Z,19.2
2019-02-28T06:53:33.767Z,19.2
2019-02-28T06:54:17.941Z,19.2
2019-02-28T06:55:08.882Z,19.2
2019-02-28T06:55:58.606Z,19.1
2019-02-28T06:56:48.411Z,19.2
2019-02-28T06:57:39.312Z,19.2
2019-02-28T06:58:35.000Z,19.2
2019-02-28T06:59:17.991Z,19.2
2019-02-28T07:00:14.783Z,19.2
2019-02-28T07:00:59.298Z,19.2
2019-02-28T07:01:49.081Z,19.2
2019-02-28T07:02:37.731Z,19.2
2019-02-28T07:03:28.850Z,19.2
2019-02-28T07:06:01.972Z,19.2
2019-02-28T07:06:45.297Z,19.2
2019-02-28T07:07:34.753Z,19.2
2019-02-28T07:08:35.200Z,19.2
2019-02-28T07:09:15.700Z,19.2
2019-02-28T07:10:14.380Z,19.1
2019-02-28T07:10:55.647Z,19.2
2019-02-28T07:11:45.587Z,19.2
2019-02-28T07:12:39.082Z,19.2
2019-02-28T07:13:25.450Z,19.2
2019-02-28T07:14:20.289Z,19.2
2019-02-28T07:15:06.162Z,19.2
2019-02-28T07:16:05.340Z,19.2
2019-02-28T07:16:46.042Z,19.2
2019-02-28T07:17:36.284Z,19.2
2019-02-28T07:18:26.537Z,19.2
2019-02-28T07:19:16.114Z,19.2
2019-02-28T07:20:11.666Z,19.2
2019-02-28T07:20:56.544Z,19.2
2019-02-28T07:21:50.552Z,19.2
2019-02-28T07:22:36.098Z,19.2
2019-02-28T07:23:35.359Z,19.2
2019-02-28T07:24:16.782Z,19.2
2019-02-28T07:25:09.383Z,19.2
2019-02-28T07:25:58.237Z,19.2
2019-02-28T07:26:46.051Z,19.2
2019-02-28T07:27:36.394Z,19.2
2019-02-28T07:28:27.142Z,19.2
2019-02-28T07:29:18.631Z,19.2
2019-02-28T07:30:07.366Z,19.2
2019-02-28T07:30:57.654Z,19.2
2019-02-28T07:31:47.314Z,19.2
2019-02-28T07:32:41.362Z,19.2
2019-02-28T07:33:27.138Z,19.2
2019-02-28T07:34:26.834Z,19.2
2019-02-28T07:35:07.260Z,19.2
2019-02-28T07:35:56.968Z,19.2
2019-02-28T07:36:51.649Z,19.2
2019-02-28T07:37:37.667Z,19.2
2019-02-28T07:38:34.214Z,19.2
2019-02-28T07:39:17.534Z,19.2
2019-02-28T07:40:07.578Z,19.2
2019-02-28T07:40:57.568Z,19.2
2019-02-28T07:41:48.286Z,19.2
2019-02-28T07:42:44.483Z,19.2
2019-02-28T07:43:27.710Z,19.2
2019-02-28T07:44:24.893Z,19.2
2019-02-28T07:45:07.873Z,19.2
2019-02-28T07:45:58.771Z,19.2
2019-02-28T07:46:49.172Z,19.2
2019-02-28T07:47:38.333Z,19.2
2019-02-28T07:48:36.120Z,19.2
2019-02-28T07:49:17.705Z,19.2
2019-02-28T07:50:14.482Z,19.2
2019-02-28T07:50:59.773Z,19.2
2019-02-28T07:51:47.748Z,19.2
2019-02-28T07:52:40.499Z,19.2
2019-02-28T07:53:28.793Z,19.3
2019-02-28T07:54:24.781Z,19.2
2019-02-28T07:55:07.397Z,19.2
2019-02-28T07:55:58.612Z,19.2
2019-02-28T07:56:50.715Z,19.2
2019-02-28T07:57:38.765Z,19.2
2019-02-28T07:58:37.386Z,19.2
2019-02-28T07:59:18.267Z,19.2
2019-02-28T08:00:08.705Z,19.2
2019-02-28T08:01:00.454Z,19.2
2019-02-28T08:01:51.302Z,19.2
2019-02-28T08:02:46.128Z,19.2
2019-02-28T08:03:29.129Z,19.2
2019-02-28T08:04:25.502Z,19.2
2019-02-28T08:05:09.610Z,19.2
2019-02-28T08:06:06.339Z,19.2
2019-02-28T08:06:49.624Z,19.2
2019-02-28T08:07:39.426Z,19.2
2019-02-28T08:08:33.442Z,19.2
2019-02-28T08:09:19.499Z,19.2
2019-02-28T08:10:12.694Z,19.3
2019-02-28T08:10:59.909Z,19.2
2019-02-28T08:11:56.889Z,19.2
2019-02-28T08:12:40.009Z,19.2
2019-02-28T08:13:29.512Z,19.2
2019-02-28T08:14:20.224Z,19.2
2019-02-28T08:15:09.382Z,19.2
2019-02-28T08:16:05.966Z,19.2
2019-02-28T08:16:50.021Z,19.2
2019-02-28T08:17:48.698Z,19.2
2019-02-28T08:18:32.601Z,19.2
2019-02-28T08:19:22.645Z,19.2
2019-02-28T08:20:10.301Z,19.2
2019-02-28T08:21:00.111Z,19.2
2019-02-28T08:21:56.839Z,19.2
2019-02-28T08:22:39.903Z,19.2
2019-02-28T08:23:37.451Z,19.2
2019-02-28T08:24:20.506Z,19.2
2019-02-28T08:25:13.869Z,19.2
2019-02-28T08:26:00.099Z,19.2
2019-02-28T08:26:56.801Z,19.2
2019-02-28T08:27:39.950Z,19.2
2019-02-28T08:28:39.562Z,19.2
2019-02-28T08:29:20.091Z,19.2
2019-02-28T08:30:10.973Z,19.2
2019-02-28T08:31:02.401Z,19.2
2019-02-28T08:31:50.733Z,19.2
2019-02-28T08:32:50.570Z,19.2
2019-02-28T08:33:31.458Z,19.2
2019-02-28T08:34:28.226Z,19.2
2019-02-28T08:35:11.555Z,19.2
2019-02-28T08:36:01.601Z,19.2
2019-02-28T08:36:54.248Z,19.2
2019-02-28T08:37:41.415Z,19.2
2019-02-28T08:38:38.768Z,19.2
2019-02-28T08:39:22.912Z,19.2
2019-02-28T08:40:17.767Z,19.2
2019-02-28T08:41:01.925Z,19.2
2019-02-28T08:41:53.497Z,19.2
2019-02-28T08:42:45.423Z,19.2
2019-02-28T08:43:34.213Z,19.2
2019-02-28T08:44:28.705Z,19.2
2019-02-28T08:45:14.451Z,19.2
2019-02-28T08:46:14.671Z,19.2
2019-02-28T08:46:54.019Z,19.2
2019-02-28T08:47:42.451Z,19.2
2019-02-28T08:48:40.517Z,19.2
2019-02-28T08:49:22.260Z,19.2
2019-02-28T08:50:12.272Z,19.2
2019-02-28T08:51:03.262Z,19.2
2019-02-28T08:51:52.119Z,19.2
2019-02-28T08:52:50.022Z,19.2
2019-02-28T08:53:32.519Z,19.2
2019-02-28T08:54:30.052Z,19.2
2019-02-28T08:55:14.935Z,19.2
2019-02-28T08:56:02.510Z,19.2
2019-02-28T08:56:56.415Z,19.2
2019-02-28T08:57:42.224Z,19.2
2019-02-28T08:58:32.292Z,19.2
2019-02-28T08:59:29.212Z,19.2
2019-02-28T09:00:12.674Z,19.2
2019-02-28T09:01:07.667Z,19.2
2019-02-28T09:01:53.061Z,19.2
2019-02-28T09:02:43.560Z,19.2
2019-02-28T09:03:34.219Z,19.2
2019-02-28T09:04:23.214Z,19.2
2019-02-28T09:05:13.314Z,19.2
2019-02-28T09:06:12.224Z,19.1
2019-02-28T09:06:53.137Z,19.1
2019-02-28T09:07:43.824Z,19.1
2019-02-28T09:08:33.273Z,19.1
2019-02-28T09:09:23.587Z,19.1
2019-02-28T09:10:18.786Z,19.1
2019-02-28T09:11:03.674Z,19.1
2019-02-28T09:12:02.118Z,19.1
2019-02-28T09:12:44.071Z,19.1
2019-02-28T09:13:34.152Z,19.1
2019-02-28T09:14:24.825Z,19.1
2019-02-28T09:15:14.238Z,19.1
2019-02-28T09:16:09.615Z,19.2
2019-02-28T09:16:53.808Z,19.1
2019-02-28T09:17:44.123Z,19.1
2019-02-28T09:18:34.281Z,19.1
2019-02-28T09:19:23.958Z,19.1
2019-02-28T09:20:16.710Z,19.1
2019-02-28T09:21:04.656Z,19.1
2019-02-28T09:21:59.537Z,19.1
2019-02-28T09:22:43.935Z,19.1
2019-02-28T09:23:40.933Z,19.1
2019-02-28T09:24:26.555Z,19.1
2019-02-28T09:25:14.660Z,19.1
2019-02-28T09:26:06.425Z,19.1
2019-02-28T09:26:54.781Z,19.1
2019-02-28T09:27:46.095Z,19.1
2019-02-28T09:28:34.623Z,19.1
2019-02-28T09:29:28.633Z,19.1
2019-02-28T09:30:15.263Z,19.1
2019-02-28T09:31:12.072Z,19.1
2019-02-28T09:31:57.247Z,19.1
2019-02-28T09:32:50.814Z,19.1
2019-02-28T09:33:35.512Z,19.1
2019-02-28T09:34:24.547Z,19.1
2019-02-28T09:35:21.267Z,19.1
2019-02-28T09:36:05.164Z,19.1
2019-02-28T09:37:02.692Z,19.1
2019-02-28T09:37:45.505Z,19.1
2019-02-28T09:38:35.870Z,19.1
2019-02-28T09:39:26.452Z,19.1
2019-02-28T09:40:15.967Z,19.1
2019-02-28T09:41:10.913Z,19.1
2019-02-28T09:41:56.068Z,19.1
2019-02-28T09:42:54.187Z,19.1
2019-02-28T09:43:35.368Z,19.1
2019-02-28T09:44:26.270Z,19.1
2019-02-28T09:45:16.039Z,19.1
2019-02-28T09:46:05.814Z,19.1
2019-02-28T09:46:58.229Z,19.1
2019-02-28T09:47:46.436Z,19.1
2019-02-28T09:48:43.562Z,19.1
2019-02-28T09:49:25.777Z,19.1
2019-02-28T09:50:19.283Z,19.1
2019-02-28T09:51:05.861Z,19.1
2019-02-28T09:51:56.492Z,19.1
2019-02-28T09:52:48.736Z,19.1
2019-02-28T09:53:36.646Z,19.1
2019-02-28T09:54:31.221Z,19.1
2019-02-28T09:55:16.743Z,19.1
2019-02-28T09:56:13.144Z,19.1
2019-02-28T09:56:57.220Z,19.1
2019-02-28T09:57:47.154Z,19.1
2019-02-28T09:58:36.958Z,19.1
2019-02-28T09:59:27.025Z,19.1
2019-02-28T10:00:19.245Z,19.1
2019-02-28T10:01:07.147Z,19.1
2019-02-28T10:02:14.413Z,19.1
2019-02-28T10:02:53.559Z,19.1
2019-02-28T10:03:38.959Z,19.1
2019-02-28T10:04:33.483Z,19.1
2019-02-28T10:07:00.468Z,19.1
2019-02-28T10:07:44.886Z,19.1
2019-02-28T10:08:41.755Z,19.1
2019-02-28T10:09:25.240Z,19.1
2019-02-28T10:10:24.874Z,19.1
2019-02-28T10:11:21.703Z,19.1
2019-02-28T10:11:54.556Z,19.1
2019-02-28T10:12:48.950Z,19.1
2019-02-28T10:13:37.380Z,19.1
2019-02-28T10:14:31.246Z,19.1
2019-02-28T10:15:16.003Z,19.1
2019-02-28T10:16:04.651Z,19.1
2019-02-28T10:16:59.420Z,19.1
2019-02-28T10:17:47.795Z,19.1
2019-02-28T10:18:42.742Z,19.1
2019-02-28T10:19:27.895Z,19.1
2019-02-28T10:20:17.420Z,19.1
2019-02-28T10:21:08.519Z,19.1
2019-02-28T10:21:59.095Z,19.1
2019-02-28T10:22:52.527Z,19.1
2019-02-28T10:23:36.165Z,19.1
2019-02-28T10:24:34.312Z,19.1
2019-02-28T10:25:16.565Z,19.1
2019-02-28T10:26:06.354Z,19.1
2019-02-28T10:26:58.879Z,19.1
2019-02-28T10:27:46.469Z,19.1
2019-02-28T10:28:36.863Z,19.1
2019-02-28T10:29:26.557Z,19.1
2019-02-28T10:30:35.409Z,19.1
2019-02-28T10:31:06.673Z,19.1
2019-02-28T10:31:56.724Z,19.1
2019-02-28T10:32:50.076Z,19.1
2019-02-28T10:33:36.867Z,19.1
2019-02-28T10:34:33.089Z,19.1
2019-02-28T10:35:18.427Z,19.1
2019-02-28T10:36:13.804Z,19.1
2019-02-28T10:36:57.073Z,19.1
2019-02-28T10:37:47.424Z,19.1
2019-02-28T10:38:39.921Z,19.1
2019-02-28T10:39:27.282Z,19.1
2019-02-28T10:40:24.029Z,19.1
2019-02-28T10:41:07.696Z,19.1
2019-02-28T10:41:57.711Z,19.1
2019-02-28T10:42:49.996Z,19.1
2019-02-28T10:43:37.813Z,19.1
2019-02-28T10:44:34.486Z,19.1
2019-02-28T10:45:17.371Z,19.1
2019-02-28T10:46:07.461Z,19.1
2019-02-28T10:47:01.263Z,19.1
2019-02-28T10:47:47.813Z,19.1
2019-02-28T10:48:55.487Z,19.1
2019-02-28T10:49:31.641Z,19.1
2019-02-28T10:50:17.989Z,19.1
2019-02-28T10:51:20.373Z,19.1
2019-02-28T10:51:57.532Z,19.1
2019-02-28T10:52:48.223Z,19.1
2019-02-28T10:53:44.146Z,19.1
2019-02-28T10:54:28.585Z,19.1
2019-02-28T10:55:24.861Z,19.1
2019-02-28T10:56:08.380Z,19.1
2019-02-28T10:56:58.450Z,19.1
2019-02-28T10:57:48.763Z,19.1
2019-02-28T10:58:38.281Z,19.1
2019-02-28T10:59:31.263Z,19.1
2019-02-28T11:00:20.050Z,19.1
2019-02-28T11:01:15.275Z,19.1
2019-02-28T11:01:59.080Z,19.1
2019-02-28T11:02:58.294Z,19.1
2019-02-28T11:03:39.510Z,19.1
2019-02-28T11:04:32.658Z,19.1
2019-02-28T11:05:27.334Z,19.1
2019-02-28T11:06:09.457Z,19.1
2019-02-28T11:07:05.060Z,19.1
2019-02-28T11:07:51.532Z,19.1
2019-02-28T11:08:39.532Z,19.1
2019-02-28T11:09:32.000Z,19.1
2019-02-28T11:10:19.652Z,19.1
2019-02-28T11:11:16.134Z,19.1
2019-02-28T11:11:59.216Z,19.1
2019-02-28T11:12:49.838Z,19.1
2019-02-28T11:13:39.309Z,19.1
2019-02-28T11:14:29.675Z,19.2
2019-02-28T11:15:21.202Z,19.2
2019-02-28T11:16:09.770Z,19.2
2019-02-28T11:17:15.317Z,19.2
2019-02-28T11:17:51.172Z,19.2
2019-02-28T11:18:45.326Z,19.2
2019-02-28T11:19:30.037Z,19.2
2019-02-28T11:20:34.751Z,19.2
2019-02-28T11:21:09.542Z,19.2
2019-02-28T11:22:07.427Z,19.2
2019-02-28T11:22:50.204Z,19.2
2019-02-28T11:23:40.004Z,19.3
2019-02-28T11:24:33.624Z,19.3
2019-02-28T11:25:20.119Z,19.3
2019-02-28T11:26:16.824Z,19.3
2019-02-28T11:27:01.854Z,19.3
2019-02-28T11:27:49.738Z,19.3
2019-02-28T11:28:40.611Z,19.3
2019-02-28T11:29:30.658Z,19.3
2019-02-28T11:30:20.399Z,19.3
2019-02-28T11:31:12.744Z,19.3
2019-02-28T11:32:03.623Z,19.3
2019-02-28T11:32:50.910Z,19.3
2019-02-28T11:33:46.493Z,19.3
2019-02-28T11:34:31.315Z,19.3
2019-02-28T11:35:27.131Z,19.3
2019-02-28T11:36:12.753Z,19.3
2019-02-28T11:37:01.195Z,19.3
2019-02-28T11:37:52.043Z,19.3
2019-02-28T11:38:41.308Z,19.3
2019-02-28T11:39:39.620Z,19.3
2019-02-28T11:40:21.681Z,19.3
2019-02-28T11:41:11.730Z,19.3
2019-02-28T11:42:03.399Z,19.3
2019-02-28T11:42:51.884Z,19.3
2019-02-28T11:43:44.775Z,19.4
2019-02-28T11:44:31.758Z,19.4
2019-02-28T11:45:31.039Z,19.4
2019-02-28T11:46:11.808Z,19.4
2019-02-28T11:47:01.350Z,19.4
2019-02-28T11:47:52.010Z,19.4
2019-02-28T11:48:42.300Z,19.4
2019-02-28T11:49:35.522Z,19.4
2019-02-28T11:50:22.077Z,19.4
2019-02-28T11:51:14.540Z,19.4
2019-02-28T11:52:02.479Z,19.4
2019-02-28T11:52:51.789Z,19.4
2019-02-28T11:53:46.340Z,19.4
2019-02-28T11:54:32.077Z,19.4
2019-02-28T11:55:29.461Z,19.4
2019-02-28T11:56:11.940Z,19.4
2019-02-28T11:57:11.587Z,19.4
2019-02-28T11:57:52.328Z,19.4
2019-02-28T11:58:42.954Z,19.4
2019-02-28T11:59:32.167Z,19.4
2019-02-28T12:00:23.064Z,19.4
2019-02-28T12:01:16.612Z,19.4
2019-02-28T12:02:02.897Z,19.4
2019-02-28T12:03:09.102Z,19.4
2019-02-28T12:03:43.184Z,19.4
2019-02-28T12:04:33.063Z,19.4
2019-02-28T12:07:03.476Z,19.4
2019-02-28T12:07:45.055Z,19.4
2019-02-28T12:08:35.351Z,19.4
2019-02-28T12:09:26.521Z,19.4
2019-02-28T12:10:15.466Z,19.5
2019-02-28T12:11:09.214Z,19.5
2019-02-28T12:11:55.566Z,19.5
2019-02-28T12:12:51.454Z,19.5
2019-02-28T12:13:35.770Z,19.5
2019-02-28T12:14:31.164Z,19.5
2019-02-28T12:15:15.551Z,19.5
2019-02-28T12:16:05.861Z,19.5
2019-02-28T12:16:59.829Z,19.5
2019-02-28T12:17:45.726Z,19.5
2019-02-28T12:18:42.726Z,19.5
2019-02-28T12:19:25.253Z,19.5
2019-02-28T12:20:16.193Z,19.5
2019-02-28T12:21:10.993Z,19.5
2019-02-28T12:21:55.948Z,19.5
2019-02-28T12:22:55.238Z,19.5
2019-02-28T12:23:35.286Z,19.5
2019-02-28T12:24:25.880Z,19.5
2019-02-28T12:25:16.506Z,19.5
2019-02-28T12:26:06.325Z,19.5
2019-02-28T12:26:59.795Z,19.6
2019-02-28T12:27:46.668Z,19.5
2019-02-28T12:28:42.310Z,19.6
2019-02-28T12:29:26.868Z,19.5
2019-02-28T12:30:16.243Z,19.6
2019-02-28T12:31:07.552Z,19.6
2019-02-28T12:31:56.091Z,19.6
2019-02-28T12:32:53.087Z,19.6
2019-02-28T12:33:36.540Z,19.6
2019-02-28T12:34:31.490Z,19.6
2019-02-28T12:35:16.342Z,19.6
2019-02-28T12:36:06.663Z,19.6
2019-02-28T12:36:57.018Z,19.6
2019-02-28T12:37:47.073Z,19.6
2019-02-28T12:38:37.412Z,19.6
2019-02-28T12:39:29.186Z,19.6
2019-02-28T12:40:17.737Z,19.6
2019-02-28T12:41:07.011Z,19.6
2019-02-28T12:42:03.302Z,19.6
2019-02-28T12:42:47.404Z,19.6
2019-02-28T12:43:41.523Z,19.6
2019-02-28T12:44:27.222Z,19.6
2019-02-28T12:45:17.947Z,19.6
2019-02-28T12:46:07.392Z,19.6
2019-02-28T12:46:57.407Z,19.6
2019-02-28T12:47:49.972Z,19.6
2019-02-28T12:48:37.547Z,19.7
2019-02-28T12:49:33.262Z,19.7
2019-02-28T12:50:18.237Z,19.7
2019-02-28T12:51:12.506Z,19.7
2019-02-28T12:51:57.752Z,19.7
2019-02-28T12:52:53.799Z,19.7
2019-02-28T12:53:39.486Z,19.7
2019-02-28T12:54:36.749Z,19.7
2019-02-28T12:55:18.271Z,19.8
2019-02-28T12:56:11.188Z,19.7
2019-02-28T12:56:58.669Z,19.8
2019-02-28T12:57:48.736Z,19.8
2019-02-28T12:58:48.054Z,19.8
2019-02-28T12:59:28.896Z,19.8
2019-02-28T13:00:25.983Z,19.8
2019-02-28T13:01:09.071Z,19.8
2019-02-28T13:01:58.763Z,19.8
2019-02-28T13:02:52.514Z,19.8
2019-02-28T13:03:38.885Z,19.8
2019-02-28T13:04:28.971Z,19.8
2019-02-28T13:05:22.563Z,19.8
2019-02-28T13:06:09.058Z,19.8
2019-02-28T13:07:05.889Z,19.8
2019-02-28T13:07:51.470Z,19.8
2019-02-28T13:08:44.941Z,19.8
2019-02-28T13:09:31.158Z,19.8
2019-02-28T13:10:19.673Z,19.9
2019-02-28T13:11:10.730Z,19.9
2019-02-28T13:11:59.673Z,19.9
2019-02-28T13:13:09.518Z,19.9
2019-02-28T13:13:39.892Z,19.9
2019-02-28T13:14:29.775Z,19.9
2019-02-28T13:15:20.200Z,19.9
2019-02-28T13:16:09.970Z,19.9
2019-02-28T13:17:04.318Z,19.9
2019-02-28T13:17:49.870Z,19.9
2019-02-28T13:18:46.637Z,19.9
2019-02-28T13:19:30.000Z,19.9
2019-02-28T13:20:19.508Z,19.9
2019-02-28T13:21:17.812Z,19.9
2019-02-28T13:22:00.124Z,19.9
2019-02-28T13:22:49.730Z,19.9
2019-02-28T13:23:39.877Z,20
2019-02-28T13:24:30.567Z,20
2019-02-28T13:25:28.396Z,20
2019-02-28T13:26:10.652Z,20
2019-02-28T13:27:00.475Z,20
2019-02-28T13:27:53.887Z,20
2019-02-28T13:28:40.912Z,20
2019-02-28T13:29:38.362Z,20
2019-02-28T13:30:21.392Z,20
2019-02-28T13:31:10.834Z,20
2019-02-28T13:32:08.507Z,20
2019-02-28T13:32:51.176Z,20.1
2019-02-28T13:33:41.406Z,20.1
2019-02-28T13:34:36.455Z,20.1
2019-02-28T13:35:20.869Z,20.1
2019-02-28T13:36:13.939Z,20.1
2019-02-28T13:37:09.131Z,20.1
2019-02-28T13:37:51.863Z,20.1
2019-02-28T13:38:41.271Z,20.1
2019-02-28T13:39:38.701Z,20.1
2019-02-28T13:40:24.133Z,20.1
2019-02-28T13:41:11.631Z,20.1
2019-02-28T13:42:09.998Z,20.1
2019-02-28T13:42:51.849Z,20.1
2019-02-28T13:43:42.031Z,20.1
2019-02-28T13:44:40.666Z,20.1
2019-02-28T13:45:30.338Z,20.1
2019-02-28T13:46:14.919Z,20.1
2019-02-28T13:47:02.151Z,20.2
2019-02-28T13:47:53.966Z,20.1
2019-02-28T13:48:41.920Z,20.2
2019-02-28T13:49:32.036Z,20.2
2019-02-28T13:50:35.061Z,20.2
2019-02-28T13:51:15.391Z,20.2
2019-02-28T13:52:02.281Z,20.2
2019-02-28T13:52:56.605Z,20.2
2019-02-28T13:53:41.733Z,20.2
2019-02-28T13:54:33.838Z,20.3
2019-02-28T13:55:26.591Z,20.2
2019-02-28T13:56:12.225Z,20.3
2019-02-28T13:57:10.682Z,20.3
2019-02-28T13:57:53.315Z,20.3
2019-02-28T13:58:42.792Z,20.3
2019-02-28T13:59:38.028Z,20.3
2019-02-28T14:00:23.126Z,20.3
2019-02-28T14:01:12.863Z,20.3
2019-02-28T14:02:03.182Z,20.3
2019-02-28T14:02:53.247Z,20.3
2019-02-28T14:03:50.845Z,20.3
2019-02-28T14:04:33.397Z,20.3
2019-02-28T14:05:22.857Z,20.3
2019-02-28T14:07:54.647Z,20.3
2019-02-28T14:08:51.807Z,20.3
2019-02-28T14:09:35.276Z,20.3
2019-02-28T14:10:25.378Z,20.4
2019-02-28T14:11:17.202Z,20.4
2019-02-28T14:12:05.245Z,20.4
2019-02-28T14:13:02.567Z,20.4
2019-02-28T14:13:45.082Z,20.4
2019-02-28T14:14:38.868Z,20.4
2019-02-28T14:15:28.142Z,20.4
2019-02-28T14:16:15.481Z,20.4
2019-02-28T14:17:08.137Z,20.4
2019-02-28T14:17:55.508Z,20.4
2019-02-28T14:18:51.724Z,20.4
2019-02-28T14:19:35.376Z,20.4
2019-02-28T14:20:32.268Z,20.4
2019-02-28T14:21:15.756Z,20.4
2019-02-28T14:22:05.349Z,20.4